North River — WYR2549 — position and weather

sailwx.info

Track history (hours):
 
Tides and Currents Weather Stations Pressure Air Temp Water Temp Dewpoint Dewpoint Depression Visibility Wind Speed Wind Dir Waves Ship Positions

North River

Owner: CITY OF NEW YORK, Brooklyn, NY. More information available from US FCC via Universal Licensing System and Coast Guard Vessel Documentation Center.

Last reported at 2017-Jul-19 20:59 UTC. Time now 2017-Jul-21 19:00 UTC.
Position N 40°47' W 073°55'.

Length 78 m.

Type: Tanker. MMSI: 367074110.

Date/timePositionNaut miles runAvg speedWind from/ knotsBaromVisibWave heightAir tempDewpointWater temp
2017-Jul-19 20:59N 40°47' W 073°55'611.7
2017-Jul-19 20:30N 40°42' W 073°59'3 6.5
2017-Jul-19 20:00N 40°45' W 074°01'5 9.9
2017-Jul-19 19:30N 40°50' W 073°58'0 0.2
2017-Jul-19 19:00N 40°49' W 073°58'0 0.0
2017-Jul-19 18:30N 40°49' W 073°58'0 0.0
2017-Jul-19 18:00N 40°49' W 073°58'0 0.4
2017-Jul-19 17:30N 40°49' W 073°58'5 9.7
2017-Jul-19 17:00N 40°45' W 074°01'3 6.0
2017-Jul-19 16:30N 40°42' W 073°59'712.8
2017-Jul-19 16:00N 40°48' W 073°54'1 2.4
2017-Jul-19 15:30N 40°47' W 073°54'0 0.0
2017-Jul-19 15:00N 40°47' W 073°54'0 0.0
2017-Jul-19 14:30N 40°47' W 073°54'0 0.0
2017-Jul-19 14:00N 40°47' W 073°54'0 0.0
2017-Jul-19 13:31N 40°47' W 073°54'0 0.0
2017-Jul-19 13:00N 40°47' W 073°54'0 0.0
2017-Jul-19 12:30N 40°47' W 073°54'0 0.0
2017-Jul-19 12:00N 40°47' W 073°54'0 0.0
2017-Jul-19 11:30N 40°47' W 073°54'0 0.0
2017-Jul-19 11:00N 40°47' W 073°54'0 0.0
2017-Jul-18 23:05N 40°47' W 073°54'0 0.7
2017-Jul-18 23:00N 40°47' W 073°53'1 0.5
2017-Jul-18 20:20N 40°47' W 073°55'3 8.4
2017-Jul-18 20:00N 40°45' W 073°58'4 7.3
2017-Jul-18 19:30N 40°43' W 074°01'5 9.8
2017-Jul-18 19:00N 40°48' W 073°59'2 4.4
2017-Jul-18 18:30N 40°49' W 073°58'0 0.0
2017-Jul-18 18:00N 40°49' W 073°58'0 0.0
2017-Jul-18 17:31N 40°49' W 073°58'0 0.0
2017-Jul-18 17:00N 40°49' W 073°58'0 0.1
2017-Jul-18 16:30N 40°49' W 073°58'5 9.7
2017-Jul-18 16:00N 40°45' W 074°01'3 6.3
2017-Jul-18 15:30N 40°42' W 073°59'6 2.0
2017-Jul-18 12:42N 40°47' W 073°55'1 4.7
2017-Jul-18 12:28N 40°47' W 073°54'0 0.0
2017-Jul-18 12:00N 40°47' W 073°54'0 0.0
2017-Jul-18 11:29N 40°47' W 073°54'0 0.0
2017-Jul-18 11:00N 40°47' W 073°54'0 0.0
2017-Jul-18 10:30N 40°47' W 073°54'0 0.0
2017-Jul-17 19:32N 40°47' W 073°53'0 2.0
2017-Jul-17 19:30N 40°47' W 073°53'4 7.5
2017-Jul-17 19:00N 40°45' W 073°58'613.0
2017-Jul-17 18:30N 40°40' W 074°03'4 7.9
2017-Jul-17 18:00N 40°38' W 074°08'0 0.0
2017-Jul-17 17:30N 40°38' W 074°08'0 0.0
2017-Jul-17 17:00N 40°38' W 074°08'0 0.0
2017-Jul-17 16:29N 40°38' W 074°08'0 0.0
2017-Jul-17 16:00N 40°38' W 074°08'0 0.0
2017-Jul-17 15:30N 40°38' W 074°08'3 5.9
2017-Jul-17 15:00N 40°39' W 074°04'611.3
2017-Jul-17 14:30N 40°43' W 073°58'611.8
2017-Jul-17 14:00N 40°48' W 073°54'1 2.4
2017-Jul-17 13:30N 40°47' W 073°54'0 0.0
2017-Jul-17 13:00N 40°47' W 073°54'0 0.0
2017-Jul-17 12:30N 40°47' W 073°54'0 0.0
2017-Jul-17 11:59N 40°47' W 073°54'  
2017-Jul-14 21:26N 40°47' W 073°54'1 0.3
2017-Jul-14 16:58N 40°47' W 073°55'2 3.9
2017-Jul-14 16:30N 40°48' W 073°53'0 0.0
2017-Jul-14 15:38N 40°48' W 073°53'0 0.0
2017-Jul-14 15:30N 40°48' W 073°53'0 0.0
2017-Jul-14 14:58N 40°48' W 073°53'0 0.0
2017-Jul-14 14:30N 40°48' W 073°53'0 0.0
2017-Jul-14 14:00N 40°48' W 073°53'1 2.3
2017-Jul-14 13:28N 40°47' W 073°54'0 0.0
2017-Jul-14 13:00N 40°47' W 073°54'0 0.0
2017-Jul-14 12:30N 40°47' W 073°54'0 0.0
2017-Jul-14 12:00N 40°47' W 073°54'0 0.0
2017-Jul-14 11:29N 40°47' W 073°54'0 0.0
2017-Jul-14 11:00N 40°47' W 073°54'0 0.0
2017-Jul-13 20:42N 40°47' W 073°54'1 3.8
2017-Jul-13 20:30N 40°48' W 073°54'1 1.2
2017-Jul-13 20:00N 40°48' W 073°53'0 0.0
2017-Jul-13 19:30N 40°48' W 073°53'0 0.0
2017-Jul-13 19:00N 40°48' W 073°53'0 0.0
2017-Jul-13 18:25N 40°48' W 073°53'0 0.3
2017-Jul-13 17:55N 40°48' W 073°53'2 4.9
2017-Jul-13 17:30N 40°48' W 073°50'0 0.0
2017-Jul-13 17:00N 40°48' W 073°50'0 0.0
2017-Jul-13 16:16N 40°48' W 073°50'0 0.0
2017-Jul-13 15:56N 40°48' W 073°50'0 0.0
2017-Jul-13 15:30N 40°48' W 073°50'2 4.2
2017-Jul-13 15:00N 40°48' W 073°53'0 0.0
2017-Jul-13 14:30N 40°48' W 073°53'0 0.0
2017-Jul-13 14:00N 40°48' W 073°53'0 0.0
2017-Jul-13 13:29N 40°48' W 073°53'0 0.0
2017-Jul-13 12:59N 40°48' W 073°53'1 2.0
2017-Jul-13 12:25N 40°47' W 073°54'0 0.3
2017-Jul-13 12:00N 40°47' W 073°54'0 0.0
2017-Jul-13 11:30N 40°47' W 073°54'0 0.0
2017-Jul-13 11:00N 40°47' W 073°54'0 0.0
2017-Jul-13 10:29N 40°47' W 073°54'0 0.0
2017-Jul-13 00:02N 40°47' W 073°53'0 3.5
2017-Jul-13 00:00N 40°47' W 073°53'1 2.1
2017-Jul-12 23:29N 40°48' W 073°53'0 0.0
2017-Jul-12 23:00N 40°48' W 073°53'0 0.0
2017-Jul-12 22:28N 40°48' W 073°53'0 0.0
2017-Jul-12 22:00N 40°48' W 073°53'0 0.0
2017-Jul-12 21:29N 40°48' W 073°53'3 6.6
2017-Jul-12 20:58N 40°46' W 073°57'4 7.9
2017-Jul-12 20:30N 40°43' W 073°58'3 5.7
2017-Jul-12 20:00N 40°45' W 074°01'5 9.8
2017-Jul-12 19:27N 40°50' W 073°58'0 0.0
2017-Jul-12 18:59N 40°50' W 073°58'0 0.0
2017-Jul-12 18:30N 40°50' W 073°58'0 0.0
2017-Jul-12 18:00N 40°50' W 073°58'0 0.0
2017-Jul-12 17:30N 40°50' W 073°58'3 5.6
2017-Jul-12 17:00N 40°47' W 073°60'510.2
2017-Jul-12 16:30N 40°42' W 074°00'510.1
2017-Jul-12 15:59N 40°47' W 073°56'3 6.0
2017-Jul-12 15:29N 40°48' W 073°53'0 0.0
2017-Jul-12 14:59N 40°48' W 073°53'0 0.0
2017-Jul-12 13:53N 40°48' W 073°53'0 0.0
2017-Jul-12 13:27N 40°48' W 073°53'1 2.7
2017-Jul-12 13:00N 40°47' W 073°54'0 0.0
2017-Jul-12 12:30N 40°47' W 073°54'0 0.0
2017-Jul-12 11:59N 40°47' W 073°54'0 0.0
2017-Jul-12 11:30N 40°47' W 073°54'0 0.0
2017-Jul-12 11:00N 40°47' W 073°54'  
Track history (hours):
 
Tides and Currents Weather Stations Pressure Air Temp Water Temp Dewpoint Dewpoint Depression Visibility Wind Speed Wind Dir Waves Ship Positions

North River

Owner: CITY OF NEW YORK, Brooklyn, NY. More information available from US FCC via Universal Licensing System and Coast Guard Vessel Documentation Center.

Last reported at 2017-Jul-19 20:59 UTC. Time now 2017-Jul-21 19:00 UTC.
Position N 40°47' W 073°55'.

Length 78 m.

Type: Tanker. MMSI: 367074110.

Date/timePositionNaut miles runAvg speedWind from/ knotsBaromVisibWave heightAir tempDewpointWater temp
2017-Jul-19 20:59N 40°47' W 073°55'611.7
2017-Jul-19 20:30N 40°42' W 073°59'3 6.5
2017-Jul-19 20:00N 40°45' W 074°01'5 9.9
2017-Jul-19 19:30N 40°50' W 073°58'0 0.2
2017-Jul-19 19:00N 40°49' W 073°58'0 0.0
2017-Jul-19 18:30N 40°49' W 073°58'0 0.0
2017-Jul-19 18:00N 40°49' W 073°58'0 0.4
2017-Jul-19 17:30N 40°49' W 073°58'5 9.7
2017-Jul-19 17:00N 40°45' W 074°01'3 6.0
2017-Jul-19 16:30N 40°42' W 073°59'712.8
2017-Jul-19 16:00N 40°48' W 073°54'1 2.4
2017-Jul-19 15:30N 40°47' W 073°54'0 0.0
2017-Jul-19 15:00N 40°47' W 073°54'0 0.0
2017-Jul-19 14:30N 40°47' W 073°54'0 0.0
2017-Jul-19 14:00N 40°47' W 073°54'0 0.0
2017-Jul-19 13:31N 40°47' W 073°54'0 0.0
2017-Jul-19 13:00N 40°47' W 073°54'0 0.0
2017-Jul-19 12:30N 40°47' W 073°54'0 0.0
2017-Jul-19 12:00N 40°47' W 073°54'0 0.0
2017-Jul-19 11:30N 40°47' W 073°54'0 0.0
2017-Jul-19 11:00N 40°47' W 073°54'0 0.0
2017-Jul-18 23:05N 40°47' W 073°54'0 0.7
2017-Jul-18 23:00N 40°47' W 073°53'1 0.5
2017-Jul-18 20:20N 40°47' W 073°55'3 8.4
2017-Jul-18 20:00N 40°45' W 073°58'4 7.3
2017-Jul-18 19:30N 40°43' W 074°01'5 9.8
2017-Jul-18 19:00N 40°48' W 073°59'2 4.4
2017-Jul-18 18:30N 40°49' W 073°58'0 0.0
2017-Jul-18 18:00N 40°49' W 073°58'0 0.0
2017-Jul-18 17:31N 40°49' W 073°58'0 0.0
2017-Jul-18 17:00N 40°49' W 073°58'0 0.1
2017-Jul-18 16:30N 40°49' W 073°58'5 9.7
2017-Jul-18 16:00N 40°45' W 074°01'3 6.3
2017-Jul-18 15:30N 40°42' W 073°59'6 2.0
2017-Jul-18 12:42N 40°47' W 073°55'1 4.7
2017-Jul-18 12:28N 40°47' W 073°54'0 0.0
2017-Jul-18 12:00N 40°47' W 073°54'0 0.0
2017-Jul-18 11:29N 40°47' W 073°54'0 0.0
2017-Jul-18 11:00N 40°47' W 073°54'0 0.0
2017-Jul-18 10:30N 40°47' W 073°54'0 0.0
2017-Jul-17 19:32N 40°47' W 073°53'0 2.0
2017-Jul-17 19:30N 40°47' W 073°53'4 7.5
2017-Jul-17 19:00N 40°45' W 073°58'613.0
2017-Jul-17 18:30N 40°40' W 074°03'4 7.9
2017-Jul-17 18:00N 40°38' W 074°08'0 0.0
2017-Jul-17 17:30N 40°38' W 074°08'0 0.0
2017-Jul-17 17:00N 40°38' W 074°08'0 0.0
2017-Jul-17 16:29N 40°38' W 074°08'0 0.0
2017-Jul-17 16:00N 40°38' W 074°08'0 0.0
2017-Jul-17 15:30N 40°38' W 074°08'3 5.9
2017-Jul-17 15:00N 40°39' W 074°04'611.3
2017-Jul-17 14:30N 40°43' W 073°58'611.8
2017-Jul-17 14:00N 40°48' W 073°54'1 2.4
2017-Jul-17 13:30N 40°47' W 073°54'0 0.0
2017-Jul-17 13:00N 40°47' W 073°54'0 0.0
2017-Jul-17 12:30N 40°47' W 073°54'0 0.0
2017-Jul-17 11:59N 40°47' W 073°54'  
2017-Jul-14 21:26N 40°47' W 073°54'1 0.3
2017-Jul-14 16:58N 40°47' W 073°55'2 3.9
2017-Jul-14 16:30N 40°48' W 073°53'0 0.0
2017-Jul-14 15:38N 40°48' W 073°53'0 0.0
2017-Jul-14 15:30N 40°48' W 073°53'0 0.0
2017-Jul-14 14:58N 40°48' W 073°53'0 0.0
2017-Jul-14 14:30N 40°48' W 073°53'0 0.0
2017-Jul-14 14:00N 40°48' W 073°53'1 2.3
2017-Jul-14 13:28N 40°47' W 073°54'0 0.0
2017-Jul-14 13:00N 40°47' W 073°54'0 0.0
2017-Jul-14 12:30N 40°47' W 073°54'0 0.0
2017-Jul-14 12:00N 40°47' W 073°54'0 0.0
2017-Jul-14 11:29N 40°47' W 073°54'0 0.0
2017-Jul-14 11:00N 40°47' W 073°54'0 0.0
2017-Jul-13 20:42N 40°47' W 073°54'1 3.8
2017-Jul-13 20:30N 40°48' W 073°54'1 1.2
2017-Jul-13 20:00N 40°48' W 073°53'0 0.0
2017-Jul-13 19:30N 40°48' W 073°53'0 0.0
2017-Jul-13 19:00N 40°48' W 073°53'0 0.0
2017-Jul-13 18:25N 40°48' W 073°53'0 0.3
2017-Jul-13 17:55N 40°48' W 073°53'2 4.9
2017-Jul-13 17:30N 40°48' W 073°50'0 0.0
2017-Jul-13 17:00N 40°48' W 073°50'0 0.0
2017-Jul-13 16:16N 40°48' W 073°50'0 0.0
2017-Jul-13 15:56N 40°48' W 073°50'0 0.0
2017-Jul-13 15:30N 40°48' W 073°50'2 4.2
2017-Jul-13 15:00N 40°48' W 073°53'0 0.0
2017-Jul-13 14:30N 40°48' W 073°53'0 0.0
2017-Jul-13 14:00N 40°48' W 073°53'0 0.0
2017-Jul-13 13:29N 40°48' W 073°53'0 0.0
2017-Jul-13 12:59N 40°48' W 073°53'1 2.0
2017-Jul-13 12:25N 40°47' W 073°54'0 0.3
2017-Jul-13 12:00N 40°47' W 073°54'0 0.0
2017-Jul-13 11:30N 40°47' W 073°54'0 0.0
2017-Jul-13 11:00N 40°47' W 073°54'0 0.0
2017-Jul-13 10:29N 40°47' W 073°54'0 0.0
2017-Jul-13 00:02N 40°47' W 073°53'0 3.5
2017-Jul-13 00:00N 40°47' W 073°53'1 2.1
2017-Jul-12 23:29N 40°48' W 073°53'0 0.0
2017-Jul-12 23:00N 40°48' W 073°53'0 0.0
2017-Jul-12 22:28N 40°48' W 073°53'0 0.0
2017-Jul-12 22:00N 40°48' W 073°53'0 0.0
2017-Jul-12 21:29N 40°48' W 073°53'3 6.6
2017-Jul-12 20:58N 40°46' W 073°57'4 7.9
2017-Jul-12 20:30N 40°43' W 073°58'3 5.7
2017-Jul-12 20:00N 40°45' W 074°01'5 9.8
2017-Jul-12 19:27N 40°50' W 073°58'0 0.0
2017-Jul-12 18:59N 40°50' W 073°58'0 0.0
2017-Jul-12 18:30N 40°50' W 073°58'0 0.0
2017-Jul-12 18:00N 40°50' W 073°58'0 0.0
2017-Jul-12 17:30N 40°50' W 073°58'3 5.6
2017-Jul-12 17:00N 40°47' W 073°60'510.2
2017-Jul-12 16:30N 40°42' W 074°00'510.1
2017-Jul-12 15:59N 40°47' W 073°56'3 6.0
2017-Jul-12 15:29N 40°48' W 073°53'0 0.0
2017-Jul-12 14:59N 40°48' W 073°53'0 0.0
2017-Jul-12 13:53N 40°48' W 073°53'0 0.0
2017-Jul-12 13:27N 40°48' W 073°53'1 2.7
2017-Jul-12 13:00N 40°47' W 073°54'0 0.0
2017-Jul-12 12:30N 40°47' W 073°54'0 0.0
2017-Jul-12 11:59N 40°47' W 073°54'0 0.0
2017-Jul-12 11:30N 40°47' W 073°54'0 0.0
2017-Jul-12 11:00N 40°47' W 073°54'  

Dump ship's entire track history